createdAt,value
2019-04-23T07:01:00.246Z,99734.84
2019-04-23T07:06:42.515Z,99719.47
2019-04-23T07:12:21.670Z,99721.17
2019-04-23T07:17:53.889Z,99711.00
2019-04-23T07:23:44.607Z,99704.52
2019-04-23T07:29:15.189Z,99685.50
2019-04-23T07:34:55.080Z,99694.92
2019-04-23T07:40:40.268Z,99685.20
2019-04-23T07:46:10.092Z,99680.22
2019-04-23T07:51:35.471Z,99672.84
2019-04-23T08:02:55.694Z,99655.33
2019-04-23T08:08:00.061Z,99650.77
2019-04-23T08:13:30.771Z,99644.35
2019-04-23T08:18:44.678Z,99639.80
2019-04-23T08:29:18.211Z,99628.00
2019-04-23T08:39:59.635Z,99620.04
2019-04-23T08:45:21.529Z,99614.02
2019-04-23T08:50:43.860Z,99609.00
2019-04-23T08:55:53.375Z,99605.31
2019-04-23T09:01:14.397Z,99603.83
2019-04-23T09:06:34.696Z,99592.59
2019-04-23T09:11:57.551Z,99591.16
2019-04-23T09:17:26.393Z,99586.67
2019-04-23T09:28:07.183Z,99581.53
2019-04-23T09:33:30.577Z,99577.89
2019-04-23T09:38:44.461Z,99571.78
2019-04-23T09:44:14.159Z,99568.92
2019-04-23T09:49:32.277Z,99563.78
2019-04-23T09:54:54.885Z,99559.83
2019-04-23T10:00:07.351Z,99561.17
2019-04-23T10:05:06.960Z,99554.37
2019-04-23T10:10:01.226Z,99542.64
2019-04-23T10:15:22.469Z,99533.34
2019-04-23T10:20:14.529Z,99528.70
2019-04-23T10:25:15.076Z,99515.05
2019-04-23T10:30:14.894Z,99517.69
2019-04-23T10:35:38.490Z,99513.36
2019-04-23T10:40:48.216Z,99506.63
2019-04-23T10:46:19.888Z,99498.84
2019-04-23T10:56:57.999Z,99481.39
2019-04-23T11:07:30.425Z,99485.92
2019-04-23T11:12:41.378Z,99473.53
2019-04-23T11:17:47.466Z,99465.98
2019-04-23T11:22:53.160Z,99471.82
2019-04-23T11:28:20.310Z,99466.75
2019-04-23T11:33:50.487Z,99462.82
2019-04-23T11:43:52.761Z,99460.55
2019-04-23T11:49:23.741Z,99457.00
2019-04-23T11:54:22.512Z,99450.86
2019-04-23T11:59:57.123Z,99436.78
2019-04-23T12:04:58.980Z,99451.16
2019-04-23T12:10:10.708Z,99445.61
2019-04-23T12:15:24.977Z,99431.59
2019-04-23T12:20:39.574Z,99437.72
2019-04-23T12:25:51.337Z,99437.77
2019-04-23T12:30:55.629Z,99435.70
2019-04-23T12:36:21.066Z,99427.45
2019-04-23T12:41:28.131Z,99422.81
2019-04-23T12:46:44.925Z,99414.13
2019-04-23T12:51:53.278Z,99401.89
2019-04-23T12:57:10.731Z,99405.68
2019-04-23T13:02:32.542Z,99396.33
2019-04-23T13:07:37.874Z,99395.88
2019-04-23T13:12:49.757Z,99398.56
2019-04-23T13:23:29.171Z,99380.72
2019-04-23T13:28:26.248Z,99374.73
2019-04-23T13:33:43.598Z,99374.08
2019-04-23T13:39:08.960Z,99364.26
2019-04-23T13:43:58.674Z,99356.39
2019-04-23T13:49:25.886Z,99357.85
2019-04-23T13:54:54.345Z,99351.98
2019-04-23T13:59:48.156Z,99346.59
2019-04-23T14:05:03.658Z,99338.47
2019-04-23T14:10:28.568Z,99330.23
2019-04-23T14:15:40.129Z,99328.41
2019-04-23T14:20:38.162Z,99324.28
2019-04-23T14:26:08.189Z,99312.59
2019-04-23T14:41:29.209Z,99306.30
2019-04-23T14:52:05.946Z,99303.16
2019-04-23T14:57:24.367Z,99305.50
2019-04-23T15:02:33.350Z,99300.83
2019-04-23T15:07:41.939Z,99301.30
2019-04-23T15:12:59.471Z,99292.49
2019-04-23T15:18:11.355Z,99292.47
2019-04-23T15:23:39.892Z,99291.27
2019-04-23T15:28:13.948Z,99295.39
2019-04-23T15:39:16.200Z,99292.47
2019-04-23T15:44:12.919Z,99290.20
2019-04-23T15:49:26.327Z,99283.34
2019-04-23T15:54:46.967Z,99285.63
2019-04-23T15:59:54.451Z,99281.06
2019-04-23T16:04:23.968Z,99285.26
2019-04-23T16:10:08.475Z,99280.09
2019-04-23T16:15:12.715Z,99282.00
2019-04-23T16:25:41.855Z,99275.71
2019-04-23T16:31:02.917Z,99276.49
2019-04-23T16:36:10.602Z,99277.55
2019-04-23T16:41:45.367Z,99274.84
2019-04-23T16:46:49.498Z,99269.58
2019-04-23T16:52:01.073Z,99276.27
2019-04-23T16:57:28.832Z,99271.95
2019-04-23T17:02:31.607Z,99270.65
2019-04-23T17:08:00.017Z,99265.72
2019-04-23T17:13:18.251Z,99268.65
2019-04-23T17:18:24.287Z,99269.30
2019-04-23T17:28:59.336Z,99275.63
2019-04-23T17:34:16.546Z,99277.45
2019-04-23T17:39:39.472Z,99276.08
2019-04-23T17:45:22.664Z,99284.34
2019-04-23T17:50:31.738Z,99279.61
2019-04-23T17:55:50.025Z,99283.50
2019-04-23T18:01:10.786Z,99292.45
2019-04-23T18:27:23.162Z,99299.73
2019-04-23T18:32:50.724Z,99300.89
2019-04-23T18:38:13.335Z,99303.73
2019-04-23T18:54:04.377Z,99309.23
2019-04-23T19:10:23.589Z,99312.30
2019-04-23T19:26:30.737Z,99321.34
2019-04-23T19:59:01.611Z,99322.78
2019-04-23T20:04:28.037Z,99320.97
2019-04-23T20:09:51.478Z,99322.53
2019-04-23T20:15:39.713Z,99332.81
2019-04-23T20:20:53.730Z,99326.20
2019-04-23T20:26:16.893Z,99324.28
2019-04-23T20:37:25.243Z,99323.58
2019-04-23T20:42:50.723Z,99321.35
2019-04-23T20:48:30.416Z,99319.59
2019-04-23T20:54:08.369Z,99322.80
2019-04-23T20:59:40.195Z,99319.78
2019-04-23T21:10:39.966Z,99321.47
2019-04-23T21:16:19.079Z,99325.14
2019-04-23T21:22:01.942Z,99322.25
2019-04-23T21:27:55.091Z,99327.64
2019-04-23T21:33:04.710Z,99318.64
2019-04-23T21:38:53.995Z,99323.66
2019-04-23T21:55:46.306Z,99321.68
2019-04-23T22:01:17.997Z,99336.04
2019-04-23T22:06:58.857Z,99340.11
2019-04-23T22:12:30.161Z,99336.68
2019-04-23T22:18:04.560Z,99333.97
2019-04-23T22:23:57.534Z,99348.05
2019-04-23T22:35:10.332Z,99352.09
2019-04-23T22:41:01.610Z,99359.60
2019-04-23T22:46:55.893Z,99353.48
2019-04-23T22:52:20.667Z,99354.85
2019-04-23T23:03:31.423Z,99362.19
2019-04-23T23:09:24.387Z,99366.56
2019-04-23T23:15:07.813Z,99359.50
2019-04-23T23:26:19.608Z,99362.11
2019-04-23T23:37:41.614Z,99367.62
2019-04-23T23:49:10.881Z,99368.47
2019-04-23T23:54:59.050Z,99363.63
